Loudonville, Ohio
Current Conditions -  °F | °C
As of 3:52 AM on Monday 24 Nov 2014 (Local Time) from KMFD Reporting Station
Overcast Overcast  
Wind Chill: 57°   Ceiling: 1600
Heat Index: 57°   Visibility: 10mi
Dew Point: 55°   Wind: 29mph
Humidity: 93%   Direction: 200°SSW
Pressure: 29.26"   Gusts: 43mph
Location:  40.64°N, 82.23°W
Report Text: KMFD 240852Z AUTO 20025G37KT 10SM OVC016 14/13 A2926 RMK AO2 PK WND 18037/0827 RAE20 SLP904 P0002 60009 T01390128 53005
Loading
Personal Weather Stations






























Interactive Weather Map New forecast layout! Learn more

10-Day Weather Forecast

Advertisements
Track Severe Weather on mobile